ITY1468 LICJ-LIMJ
Flight info
| Callsign | ITY1468 |
|---|---|
| Flight time | 1h 16m |
| Altitude | 34000 |
| Route | LURON DCT RONAB DCT RUVIP DCT BETOT DCT POKAV DCT TINTO DCT VELAD DCT ELB DCT NORNI DCT BETEN M729 IDONA |
| Aircraft | A21N/M-SDE2E3FGHIRWXY/LB1 |
Departure
| Time | 2026-04-21 16:53 |
|---|---|
| Airport | Falcone–Borsellino Airport (LICJ) |
Arrival
| Time | 2026-04-21 18:09 |
|---|---|
| Airport | Genoa Cristoforo Colombo Airport (LIMJ) |
| Time | Latitude | Longitude | Altitude | Speed | Heading |
|---|---|---|---|---|---|
| 2026-04-21 16:33 | 38.18264 | 13.10039 | 70 ft | 0 kts | 246° |
| 2026-04-21 16:46 | 38.18267 | 13.10048 | 62 ft | 4 kts | 243° |
| 2026-04-21 16:46 | 38.18283 | 13.10074 | 62 ft | 4 kts | 214° |
| 2026-04-21 16:46 | 38.18306 | 13.10084 | 63 ft | 4 kts | 172° |
| 2026-04-21 16:46 | 38.18319 | 13.10079 | 65 ft | 1 kts | 156° |
| 2026-04-21 16:47 | 38.18320 | 13.10079 | 64 ft | 0 kts | 156° |
| 2026-04-21 16:48 | 38.18319 | 13.10079 | 65 ft | 1 kts | 156° |
| 2026-04-21 16:49 | 38.18297 | 13.10091 | 63 ft | 7 kts | 157° |
| 2026-04-21 16:49 | 38.18244 | 13.10120 | 64 ft | 9 kts | 157° |
| 2026-04-21 16:49 | 38.18179 | 13.10154 | 65 ft | 11 kts | 163° |
| 2026-04-21 16:49 | 38.18126 | 13.10087 | 64 ft | 13 kts | 242° |
| 2026-04-21 16:50 | 38.18084 | 13.09979 | 66 ft | 15 kts | 245° |
| 2026-04-21 16:50 | 38.18040 | 13.09857 | 66 ft | 16 kts | 245° |
| 2026-04-21 16:50 | 38.17993 | 13.09721 | 68 ft | 17 kts | 247° |
| 2026-04-21 16:50 | 38.17945 | 13.09574 | 64 ft | 19 kts | 247° |
| 2026-04-21 16:51 | 38.17894 | 13.09417 | 65 ft | 20 kts | 247° |
| 2026-04-21 16:51 | 38.17838 | 13.09249 | 71 ft | 21 kts | 247° |
| 2026-04-21 16:51 | 38.17780 | 13.09071 | 69 ft | 22 kts | 247° |
| 2026-04-21 16:51 | 38.17691 | 13.08913 | 64 ft | 23 kts | 214° |
| 2026-04-21 16:52 | 38.17566 | 13.08789 | 70 ft | 9 kts | 217° |
| 2026-04-21 16:52 | 38.17500 | 13.08776 | 72 ft | 12 kts | 149° |
| 2026-04-21 16:52 | 38.17490 | 13.08827 | 75 ft | 6 kts | 62° |
| 2026-04-21 16:52 | 38.17513 | 13.08892 | 70 ft | 28 kts | 65° |
| 2026-04-21 16:53 | 38.17689 | 13.09404 | 70 ft | 96 kts | 64° |
| 2026-04-21 16:53 | 38.18029 | 13.10415 | 74 ft | 150 kts | 65° |
| 2026-04-21 16:53 | 38.18461 | 13.11687 | 478 ft | 155 kts | 65° |
| 2026-04-21 16:53 | 38.18884 | 13.12993 | 869 ft | 167 kts | 66° |
| 2026-04-21 16:54 | 38.19320 | 13.14354 | 919 ft | 166 kts | 65° |
| 2026-04-21 16:54 | 38.19826 | 13.15929 | 674 ft | 222 kts | 66° |
| 2026-04-21 16:54 | 38.20493 | 13.17789 | 1281 ft | 232 kts | 56° |
| 2026-04-21 16:54 | 38.21516 | 13.19295 | 2423 ft | 222 kts | 38° |
| 2026-04-21 16:55 | 38.22926 | 13.20138 | 3036 ft | 238 kts | 14° |
| 2026-04-21 16:55 | 38.24557 | 13.20949 | 3357 ft | 264 kts | 24° |
| 2026-04-21 16:55 | 38.26346 | 13.21489 | 4049 ft | 267 kts | 358° |
| 2026-04-21 16:55 | 38.28197 | 13.21248 | 4908 ft | 269 kts | 349° |
| 2026-04-21 16:56 | 38.30068 | 13.20888 | 5799 ft | 271 kts | 349° |
| 2026-04-21 16:56 | 38.31941 | 13.20540 | 6671 ft | 273 kts | 350° |
| 2026-04-21 16:56 | 38.33829 | 13.20206 | 7502 ft | 275 kts | 350° |
| 2026-04-21 16:56 | 38.35733 | 13.19880 | 8340 ft | 278 kts | 349° |
| 2026-04-21 16:57 | 38.37663 | 13.19553 | 9206 ft | 280 kts | 349° |
| 2026-04-21 16:57 | 38.39608 | 13.19229 | 10042 ft | 283 kts | 349° |
| 2026-04-21 16:57 | 38.41616 | 13.18893 | 10498 ft | 301 kts | 349° |
| 2026-04-21 16:57 | 38.43695 | 13.18211 | 10807 ft | 317 kts | 332° |
| 2026-04-21 16:58 | 38.45630 | 13.16800 | 11421 ft | 324 kts | 326° |
| 2026-04-21 16:58 | 38.47551 | 13.15263 | 12183 ft | 327 kts | 326° |
| 2026-04-21 16:58 | 38.49493 | 13.13722 | 12969 ft | 330 kts | 326° |
| 2026-04-21 16:58 | 38.51458 | 13.12181 | 13732 ft | 334 kts | 327° |
| 2026-04-21 16:59 | 38.53455 | 13.10629 | 14418 ft | 337 kts | 327° |
| 2026-04-21 16:59 | 38.55466 | 13.09073 | 15100 ft | 340 kts | 327° |
| 2026-04-21 16:59 | 38.57497 | 13.07502 | 15789 ft | 343 kts | 327° |
| 2026-04-21 16:59 | 38.59544 | 13.05916 | 16470 ft | 345 kts | 327° |
| 2026-04-21 17:00 | 38.61608 | 13.04319 | 17141 ft | 348 kts | 327° |
| 2026-04-21 17:00 | 38.63690 | 13.02706 | 17832 ft | 351 kts | 327° |
| 2026-04-21 17:00 | 38.65073 | 13.01634 | 18272 ft | 353 kts | 327° |
| 2026-04-21 17:00 | 38.67891 | 12.99449 | 19052 ft | 356 kts | 327° |
| 2026-04-21 17:01 | 38.70015 | 12.97802 | 19617 ft | 358 kts | 327° |
| 2026-04-21 17:01 | 38.72153 | 12.96141 | 20174 ft | 361 kts | 327° |
| 2026-04-21 17:01 | 38.74309 | 12.94468 | 20730 ft | 363 kts | 326° |
| 2026-04-21 17:01 | 38.76477 | 12.92785 | 21280 ft | 366 kts | 326° |
| 2026-04-21 17:02 | 38.78660 | 12.91089 | 21831 ft | 368 kts | 326° |
| 2026-04-21 17:02 | 38.80859 | 12.89375 | 22372 ft | 371 kts | 326° |
| 2026-04-21 17:02 | 38.83070 | 12.87649 | 22915 ft | 373 kts | 326° |
| 2026-04-21 17:02 | 38.85301 | 12.85908 | 23450 ft | 376 kts | 326° |
| 2026-04-21 17:03 | 38.87541 | 12.84161 | 23922 ft | 378 kts | 326° |
| 2026-04-21 17:03 | 38.89796 | 12.82402 | 24385 ft | 380 kts | 326° |
| 2026-04-21 17:03 | 38.92058 | 12.80632 | 24829 ft | 382 kts | 326° |
| 2026-04-21 17:03 | 38.94328 | 12.78854 | 25274 ft | 383 kts | 325° |
| 2026-04-21 17:04 | 38.96612 | 12.77071 | 25701 ft | 385 kts | 325° |
| 2026-04-21 17:04 | 38.98910 | 12.75268 | 26105 ft | 388 kts | 325° |
| 2026-04-21 17:04 | 39.01215 | 12.73460 | 26494 ft | 390 kts | 325° |
| 2026-04-21 17:04 | 39.03538 | 12.71634 | 26895 ft | 392 kts | 325° |
| 2026-04-21 17:05 | 39.05869 | 12.69806 | 27287 ft | 394 kts | 325° |
| 2026-04-21 17:05 | 39.08216 | 12.67964 | 27667 ft | 396 kts | 324° |
| 2026-04-21 17:05 | 39.10572 | 12.66114 | 28034 ft | 398 kts | 324° |
| 2026-04-21 17:05 | 39.12936 | 12.64256 | 28436 ft | 399 kts | 324° |
| 2026-04-21 17:06 | 39.15307 | 12.62390 | 28852 ft | 399 kts | 324° |
| 2026-04-21 17:06 | 39.17677 | 12.60521 | 29236 ft | 400 kts | 324° |
| 2026-04-21 17:06 | 39.20057 | 12.58642 | 29601 ft | 402 kts | 324° |
| 2026-04-21 17:06 | 39.22414 | 12.56780 | 29948 ft | 403 kts | 324° |
| 2026-04-21 17:07 | 39.24811 | 12.54885 | 30243 ft | 405 kts | 324° |
| 2026-04-21 17:07 | 39.27222 | 12.52981 | 30519 ft | 407 kts | 324° |
| 2026-04-21 17:07 | 39.29640 | 12.51066 | 30789 ft | 408 kts | 324° |
| 2026-04-21 17:07 | 39.32064 | 12.49142 | 31053 ft | 410 kts | 324° |
| 2026-04-21 17:08 | 39.34498 | 12.47209 | 31314 ft | 412 kts | 324° |
| 2026-04-21 17:08 | 39.36947 | 12.45266 | 31583 ft | 413 kts | 324° |
| 2026-04-21 17:08 | 39.39394 | 12.43328 | 31911 ft | 412 kts | 324° |
| 2026-04-21 17:08 | 39.41838 | 12.41388 | 32248 ft | 411 kts | 324° |
| 2026-04-21 17:09 | 39.46711 | 12.37511 | 32828 ft | 411 kts | 324° |
| 2026-04-21 17:09 | 39.49141 | 12.35576 | 33120 ft | 410 kts | 324° |
| 2026-04-21 17:09 | 39.51568 | 12.33634 | 33416 ft | 410 kts | 324° |
| 2026-04-21 17:10 | 39.53993 | 12.31699 | 33703 ft | 409 kts | 324° |
| 2026-04-21 17:10 | 39.56411 | 12.29772 | 33969 ft | 408 kts | 324° |
| 2026-04-21 17:10 | 39.58835 | 12.27837 | 34187 ft | 408 kts | 324° |
| 2026-04-21 17:10 | 39.61246 | 12.25906 | 34427 ft | 407 kts | 324° |
| 2026-04-21 17:11 | 39.63653 | 12.23980 | 34636 ft | 406 kts | 324° |
| 2026-04-21 17:11 | 39.66052 | 12.22053 | 34847 ft | 405 kts | 324° |
| 2026-04-21 17:11 | 39.68451 | 12.20131 | 35038 ft | 405 kts | 324° |
| 2026-04-21 17:11 | 39.70846 | 12.18208 | 35227 ft | 404 kts | 324° |
| 2026-04-21 17:12 | 39.73243 | 12.16285 | 35400 ft | 404 kts | 324° |
| 2026-04-21 17:12 | 39.75600 | 12.14393 | 35563 ft | 404 kts | 324° |
| 2026-04-21 17:12 | 39.77989 | 12.12472 | 35731 ft | 404 kts | 324° |
| 2026-04-21 17:12 | 39.80375 | 12.10550 | 35892 ft | 403 kts | 324° |
| 2026-04-21 17:13 | 39.85146 | 12.06694 | 35968 ft | 403 kts | 324° |
| 2026-04-21 17:13 | 39.89901 | 12.02857 | 35924 ft | 403 kts | 324° |
| 2026-04-21 17:14 | 39.94670 | 11.99002 | 35916 ft | 403 kts | 324° |
| 2026-04-21 17:14 | 39.99428 | 11.95143 | 35916 ft | 403 kts | 324° |
| 2026-04-21 17:15 | 40.04186 | 11.91273 | 35919 ft | 403 kts | 324° |
| 2026-04-21 17:15 | 40.08941 | 11.87398 | 35918 ft | 403 kts | 324° |
| 2026-04-21 17:16 | 40.13693 | 11.83521 | 35917 ft | 403 kts | 324° |
| 2026-04-21 17:16 | 40.18445 | 11.79642 | 35919 ft | 403 kts | 324° |
| 2026-04-21 17:17 | 40.23198 | 11.75769 | 35913 ft | 403 kts | 324° |
| 2026-04-21 17:17 | 40.27957 | 11.71888 | 35914 ft | 403 kts | 324° |
| 2026-04-21 17:18 | 40.32674 | 11.68022 | 35932 ft | 402 kts | 324° |
| 2026-04-21 17:18 | 40.37419 | 11.64130 | 35917 ft | 402 kts | 325° |
| 2026-04-21 17:19 | 40.42567 | 11.61096 | 35918 ft | 408 kts | 334° |
| 2026-04-21 17:19 | 40.47868 | 11.58429 | 35917 ft | 408 kts | 334° |
| 2026-04-21 17:20 | 40.53161 | 11.55745 | 35917 ft | 408 kts | 334° |
| 2026-04-21 17:20 | 40.58449 | 11.53049 | 35922 ft | 407 kts | 334° |
| 2026-04-21 17:21 | 40.63727 | 11.50343 | 35919 ft | 407 kts | 333° |
| 2026-04-21 17:21 | 40.69009 | 11.47628 | 35918 ft | 407 kts | 333° |
| 2026-04-21 17:22 | 40.74293 | 11.44922 | 35915 ft | 407 kts | 334° |
| 2026-04-21 17:22 | 40.79578 | 11.42207 | 35931 ft | 407 kts | 333° |
| 2026-04-21 17:23 | 40.84841 | 11.39501 | 35917 ft | 406 kts | 333° |
| 2026-04-21 17:23 | 40.90100 | 11.36787 | 35915 ft | 406 kts | 333° |
| 2026-04-21 17:24 | 40.95359 | 11.34073 | 35914 ft | 406 kts | 333° |
| 2026-04-21 17:24 | 41.00623 | 11.31352 | 35925 ft | 406 kts | 333° |
| 2026-04-21 17:25 | 41.05891 | 11.28625 | 35910 ft | 407 kts | 333° |
| 2026-04-21 17:25 | 41.11130 | 11.25909 | 35911 ft | 407 kts | 333° |
| 2026-04-21 17:26 | 41.16404 | 11.23187 | 35908 ft | 407 kts | 333° |
| 2026-04-21 17:26 | 41.21675 | 11.20449 | 35910 ft | 407 kts | 333° |
| 2026-04-21 17:27 | 41.26931 | 11.17702 | 35918 ft | 404 kts | 333° |
| 2026-04-21 17:27 | 41.32169 | 11.14967 | 35910 ft | 405 kts | 333° |
| 2026-04-21 17:28 | 41.37413 | 11.12233 | 35914 ft | 405 kts | 333° |
| 2026-04-21 17:28 | 41.42652 | 11.09489 | 35906 ft | 404 kts | 333° |
| 2026-04-21 17:29 | 41.47885 | 11.06740 | 35920 ft | 403 kts | 333° |
| 2026-04-21 17:29 | 41.53114 | 11.03991 | 35915 ft | 403 kts | 333° |
| 2026-04-21 17:30 | 41.58336 | 11.01240 | 35912 ft | 403 kts | 333° |
| 2026-04-21 17:30 | 41.63558 | 10.98488 | 35910 ft | 403 kts | 333° |
| 2026-04-21 17:31 | 41.68770 | 10.95726 | 35925 ft | 402 kts | 333° |
| 2026-04-21 17:31 | 41.73966 | 10.92978 | 35911 ft | 401 kts | 333° |
| 2026-04-21 17:32 | 41.79156 | 10.90221 | 35909 ft | 401 kts | 333° |
| 2026-04-21 17:32 | 41.84348 | 10.87453 | 35909 ft | 401 kts | 333° |
| 2026-04-21 17:33 | 41.89537 | 10.84683 | 35930 ft | 401 kts | 333° |
| 2026-04-21 17:33 | 41.94706 | 10.81926 | 35912 ft | 399 kts | 333° |
| 2026-04-21 17:34 | 41.99868 | 10.79164 | 35908 ft | 399 kts | 333° |
| 2026-04-21 17:34 | 42.05033 | 10.76402 | 35910 ft | 399 kts | 333° |
| 2026-04-21 17:35 | 42.10194 | 10.73633 | 35908 ft | 400 kts | 333° |
| 2026-04-21 17:35 | 42.15346 | 10.70872 | 35920 ft | 398 kts | 333° |
| 2026-04-21 17:36 | 42.19621 | 10.68577 | 35909 ft | 398 kts | 333° |
| 2026-04-21 17:36 | 42.24758 | 10.65772 | 35907 ft | 396 kts | 330° |
| 2026-04-21 17:37 | 42.29693 | 10.62496 | 35910 ft | 395 kts | 328° |
| 2026-04-21 17:37 | 42.34614 | 10.59189 | 35909 ft | 395 kts | 328° |
| 2026-04-21 17:38 | 42.39542 | 10.55893 | 35898 ft | 395 kts | 328° |
| 2026-04-21 17:38 | 42.44469 | 10.52597 | 35905 ft | 395 kts | 328° |
| 2026-04-21 17:39 | 42.49396 | 10.49301 | 35904 ft | 393 kts | 328° |
| 2026-04-21 17:39 | 42.51826 | 10.47671 | 35665 ft | 388 kts | 328° |
| 2026-04-21 17:39 | 42.54215 | 10.46060 | 35306 ft | 387 kts | 328° |
| 2026-04-21 17:40 | 42.56614 | 10.44447 | 34842 ft | 383 kts | 328° |
| 2026-04-21 17:40 | 42.58994 | 10.42845 | 34324 ft | 380 kts | 328° |
| 2026-04-21 17:40 | 42.61351 | 10.41260 | 33785 ft | 376 kts | 328° |
| 2026-04-21 17:40 | 42.63686 | 10.39684 | 33178 ft | 373 kts | 328° |
| 2026-04-21 17:41 | 42.66001 | 10.38123 | 32583 ft | 370 kts | 328° |
| 2026-04-21 17:41 | 42.68333 | 10.36552 | 31993 ft | 368 kts | 328° |
| 2026-04-21 17:41 | 42.70589 | 10.35026 | 31434 ft | 366 kts | 328° |
| 2026-04-21 17:41 | 42.72861 | 10.33489 | 30866 ft | 364 kts | 328° |
| 2026-04-21 17:42 | 42.75123 | 10.31955 | 30335 ft | 363 kts | 328° |
| 2026-04-21 17:42 | 42.77378 | 10.30424 | 29799 ft | 361 kts | 328° |
| 2026-04-21 17:42 | 42.79622 | 10.28898 | 29178 ft | 360 kts | 328° |
| 2026-04-21 17:42 | 42.81862 | 10.27381 | 28573 ft | 358 kts | 329° |
| 2026-04-21 17:43 | 42.84092 | 10.25870 | 27971 ft | 356 kts | 329° |
| 2026-04-21 17:43 | 42.86305 | 10.24368 | 27386 ft | 354 kts | 329° |
| 2026-04-21 17:43 | 42.88503 | 10.22869 | 26814 ft | 352 kts | 329° |
| 2026-04-21 17:43 | 42.90698 | 10.21369 | 26250 ft | 350 kts | 329° |
| 2026-04-21 17:44 | 42.92875 | 10.19887 | 25684 ft | 349 kts | 329° |
| 2026-04-21 17:44 | 42.95032 | 10.18413 | 25221 ft | 344 kts | 329° |
| 2026-04-21 17:44 | 42.97149 | 10.16962 | 24919 ft | 336 kts | 329° |
| 2026-04-21 17:44 | 42.99222 | 10.15542 | 24679 ft | 332 kts | 329° |
| 2026-04-21 17:45 | 43.01284 | 10.14123 | 24434 ft | 330 kts | 328° |
| 2026-04-21 17:45 | 43.03334 | 10.12717 | 24198 ft | 329 kts | 329° |
| 2026-04-21 17:45 | 43.05378 | 10.11314 | 23964 ft | 328 kts | 329° |
| 2026-04-21 17:45 | 43.07412 | 10.09915 | 23734 ft | 327 kts | 328° |
| 2026-04-21 17:46 | 43.09436 | 10.08518 | 23502 ft | 326 kts | 328° |
| 2026-04-21 17:46 | 43.11458 | 10.07121 | 23232 ft | 325 kts | 328° |
| 2026-04-21 17:46 | 43.13470 | 10.05730 | 22957 ft | 323 kts | 328° |
| 2026-04-21 17:46 | 43.15447 | 10.04358 | 22691 ft | 322 kts | 328° |
| 2026-04-21 17:47 | 43.17467 | 10.02955 | 22418 ft | 321 kts | 328° |
| 2026-04-21 17:47 | 43.19428 | 10.01596 | 22170 ft | 319 kts | 328° |
| 2026-04-21 17:47 | 43.21429 | 10.00210 | 21908 ft | 317 kts | 328° |
| 2026-04-21 17:47 | 43.23368 | 9.98869 | 21663 ft | 316 kts | 328° |
| 2026-04-21 17:48 | 43.25326 | 9.97517 | 21394 ft | 315 kts | 328° |
| 2026-04-21 17:48 | 43.27275 | 9.96164 | 21135 ft | 313 kts | 328° |
| 2026-04-21 17:48 | 43.29219 | 9.94813 | 20881 ft | 312 kts | 328° |
| 2026-04-21 17:48 | 43.31154 | 9.93468 | 20628 ft | 311 kts | 328° |
| 2026-04-21 17:49 | 43.33088 | 9.92123 | 20375 ft | 310 kts | 328° |
| 2026-04-21 17:49 | 43.35003 | 9.90787 | 20117 ft | 309 kts | 328° |
| 2026-04-21 17:49 | 43.36920 | 9.89450 | 19878 ft | 308 kts | 328° |
| 2026-04-21 17:49 | 43.38831 | 9.88110 | 19637 ft | 307 kts | 328° |
| 2026-04-21 17:50 | 43.40734 | 9.86780 | 19408 ft | 306 kts | 328° |
| 2026-04-21 17:50 | 43.42631 | 9.85453 | 19166 ft | 305 kts | 328° |
| 2026-04-21 17:50 | 43.44520 | 9.84131 | 18928 ft | 304 kts | 328° |
| 2026-04-21 17:50 | 43.46407 | 9.82811 | 18685 ft | 304 kts | 329° |
| 2026-04-21 17:51 | 43.48285 | 9.81493 | 18453 ft | 303 kts | 329° |
| 2026-04-21 17:51 | 43.50158 | 9.80182 | 18218 ft | 302 kts | 329° |
| 2026-04-21 17:51 | 43.52028 | 9.78869 | 17952 ft | 301 kts | 329° |
| 2026-04-21 17:51 | 43.53890 | 9.77561 | 17684 ft | 300 kts | 329° |
| 2026-04-21 17:52 | 43.55750 | 9.76257 | 17418 ft | 300 kts | 329° |
| 2026-04-21 17:52 | 43.57607 | 9.74953 | 17159 ft | 299 kts | 329° |
| 2026-04-21 17:52 | 43.59457 | 9.73647 | 16892 ft | 298 kts | 329° |
| 2026-04-21 17:52 | 43.61307 | 9.72343 | 16623 ft | 298 kts | 329° |
| 2026-04-21 17:53 | 43.63150 | 9.71042 | 16392 ft | 297 kts | 329° |
| 2026-04-21 17:53 | 43.64989 | 9.69745 | 16141 ft | 297 kts | 329° |
| 2026-04-21 17:53 | 43.66825 | 9.68454 | 15883 ft | 296 kts | 329° |
| 2026-04-21 17:53 | 43.68656 | 9.67160 | 15632 ft | 295 kts | 329° |
| 2026-04-21 17:54 | 43.70482 | 9.65868 | 15382 ft | 294 kts | 329° |
| 2026-04-21 17:54 | 43.72303 | 9.64582 | 15135 ft | 294 kts | 329° |
| 2026-04-21 17:54 | 43.74116 | 9.63302 | 14881 ft | 291 kts | 329° |
| 2026-04-21 17:54 | 43.75916 | 9.62029 | 14600 ft | 289 kts | 329° |
| 2026-04-21 17:55 | 43.77701 | 9.60764 | 14302 ft | 288 kts | 329° |
| 2026-04-21 17:55 | 43.79473 | 9.59507 | 13998 ft | 287 kts | 329° |
| 2026-04-21 17:55 | 43.81246 | 9.58249 | 13687 ft | 286 kts | 329° |
| 2026-04-21 17:55 | 43.83017 | 9.56991 | 13356 ft | 285 kts | 329° |
| 2026-04-21 17:56 | 43.84774 | 9.55738 | 13030 ft | 284 kts | 329° |
| 2026-04-21 17:56 | 43.86532 | 9.54487 | 12720 ft | 282 kts | 329° |
| 2026-04-21 17:56 | 43.88271 | 9.53250 | 12435 ft | 280 kts | 329° |
| 2026-04-21 17:56 | 43.89994 | 9.52022 | 12142 ft | 279 kts | 329° |
| 2026-04-21 17:57 | 43.91712 | 9.50798 | 11835 ft | 277 kts | 329° |
| 2026-04-21 17:57 | 43.93426 | 9.49577 | 11531 ft | 276 kts | 329° |
| 2026-04-21 17:57 | 43.95133 | 9.48359 | 11223 ft | 275 kts | 329° |
| 2026-04-21 17:57 | 43.96834 | 9.47148 | 10927 ft | 274 kts | 330° |
| 2026-04-21 17:58 | 43.98530 | 9.45937 | 10626 ft | 274 kts | 330° |
| 2026-04-21 17:58 | 44.00222 | 9.44726 | 10355 ft | 272 kts | 330° |
| 2026-04-21 17:58 | 44.01889 | 9.43536 | 10162 ft | 267 kts | 330° |
| 2026-04-21 17:58 | 44.03524 | 9.42367 | 9974 ft | 263 kts | 330° |
| 2026-04-21 17:59 | 44.05144 | 9.41206 | 9682 ft | 261 kts | 330° |
| 2026-04-21 17:59 | 44.06756 | 9.40049 | 9385 ft | 260 kts | 330° |
| 2026-04-21 17:59 | 44.08363 | 9.38898 | 9073 ft | 260 kts | 330° |
| 2026-04-21 17:59 | 44.09973 | 9.37743 | 8774 ft | 259 kts | 330° |
| 2026-04-21 18:00 | 44.11571 | 9.36595 | 8502 ft | 257 kts | 331° |
| 2026-04-21 18:00 | 44.13156 | 9.35457 | 8233 ft | 256 kts | 331° |
| 2026-04-21 18:00 | 44.14703 | 9.34324 | 7897 ft | 255 kts | 329° |
| 2026-04-21 18:00 | 44.16260 | 9.33063 | 7300 ft | 264 kts | 328° |
| 2026-04-21 18:01 | 44.17866 | 9.31748 | 6624 ft | 271 kts | 329° |
| 2026-04-21 18:01 | 44.19499 | 9.30416 | 6124 ft | 273 kts | 329° |
| 2026-04-21 18:01 | 44.21140 | 9.29080 | 5710 ft | 273 kts | 329° |
| 2026-04-21 18:01 | 44.22777 | 9.27749 | 5316 ft | 272 kts | 329° |
| 2026-04-21 18:02 | 44.24416 | 9.26418 | 4924 ft | 272 kts | 330° |
| 2026-04-21 18:02 | 44.26033 | 9.25101 | 4661 ft | 266 kts | 329° |
| 2026-04-21 18:02 | 44.27593 | 9.23815 | 4492 ft | 253 kts | 329° |
| 2026-04-21 18:02 | 44.29086 | 9.22587 | 4473 ft | 239 kts | 329° |
| 2026-04-21 18:03 | 44.30480 | 9.21440 | 4470 ft | 229 kts | 329° |
| 2026-04-21 18:03 | 44.31804 | 9.20353 | 4469 ft | 216 kts | 330° |
| 2026-04-21 18:03 | 44.33093 | 9.19232 | 4479 ft | 215 kts | 321° |
| 2026-04-21 18:03 | 44.33997 | 9.17587 | 4488 ft | 216 kts | 295° |
| 2026-04-21 18:04 | 44.34452 | 9.15615 | 4456 ft | 217 kts | 279° |
| 2026-04-21 18:04 | 44.34803 | 9.13575 | 4257 ft | 216 kts | 287° |
| 2026-04-21 18:04 | 44.35236 | 9.11541 | 3980 ft | 215 kts | 287° |
| 2026-04-21 18:04 | 44.35655 | 9.09625 | 3736 ft | 200 kts | 287° |
| 2026-04-21 18:05 | 44.36050 | 9.07825 | 3477 ft | 188 kts | 287° |
| 2026-04-21 18:05 | 44.36422 | 9.06135 | 3231 ft | 176 kts | 287° |
| 2026-04-21 18:05 | 44.36761 | 9.04589 | 2992 ft | 156 kts | 287° |
| 2026-04-21 18:05 | 44.37061 | 9.03217 | 2644 ft | 143 kts | 287° |
| 2026-04-21 18:06 | 44.37352 | 9.01890 | 2245 ft | 143 kts | 287° |
| 2026-04-21 18:06 | 44.37659 | 9.00566 | 2052 ft | 143 kts | 289° |
| 2026-04-21 18:06 | 44.38023 | 8.99270 | 1977 ft | 143 kts | 291° |
| 2026-04-21 18:06 | 44.38356 | 8.97956 | 1823 ft | 143 kts | 291° |
| 2026-04-21 18:07 | 44.38710 | 8.96655 | 1678 ft | 143 kts | 288° |
| 2026-04-21 18:07 | 44.38979 | 8.95316 | 1581 ft | 143 kts | 283° |
| 2026-04-21 18:07 | 44.39234 | 8.93976 | 1394 ft | 142 kts | 287° |
| 2026-04-21 18:07 | 44.39536 | 8.92661 | 1136 ft | 141 kts | 288° |
| 2026-04-21 18:08 | 44.39815 | 8.91342 | 943 ft | 141 kts | 285° |
| 2026-04-21 18:08 | 44.40055 | 8.90009 | 729 ft | 141 kts | 283° |
| 2026-04-21 18:08 | 44.40305 | 8.88679 | 530 ft | 142 kts | 285° |
| 2026-04-21 18:08 | 44.40573 | 8.87350 | 353 ft | 142 kts | 283° |
| 2026-04-21 18:09 | 44.40829 | 8.86022 | 116 ft | 141 kts | 285° |
| 2026-04-21 18:09 | 44.41087 | 8.84711 | 26 ft | 131 kts | 284° |
| 2026-04-21 18:09 | 44.41245 | 8.83982 | 26 ft | 106 kts | 282° |
| 2026-04-21 18:09 | 44.41391 | 8.83217 | 28 ft | 15 kts | 290° |
| 2026-04-21 18:10 | 44.41452 | 8.83114 | 27 ft | 11 kts | 324° |
| 2026-04-21 18:10 | 44.41521 | 8.83108 | 27 ft | 12 kts | 55° |
| 2026-04-21 18:10 | 44.41536 | 8.83228 | 26 ft | 14 kts | 102° |
| 2026-04-21 18:10 | 44.41512 | 8.83368 | 27 ft | 16 kts | 108° |
| 2026-04-21 18:11 | 44.41478 | 8.83521 | 25 ft | 17 kts | 105° |
| 2026-04-21 18:11 | 44.41445 | 8.83691 | 25 ft | 19 kts | 105° |
| 2026-04-21 18:11 | 44.41411 | 8.83874 | 27 ft | 20 kts | 105° |
| 2026-04-21 18:11 | 44.41374 | 8.84070 | 25 ft | 22 kts | 105° |
| 2026-04-21 18:12 | 44.41335 | 8.84273 | 26 ft | 21 kts | 109° |
| 2026-04-21 18:12 | 44.41330 | 8.84431 | 27 ft | 16 kts | 54° |
| 2026-04-21 18:12 | 44.41401 | 8.84564 | 25 ft | 18 kts | 53° |
| 2026-04-21 18:12 | 44.41420 | 8.84673 | 25 ft | 11 kts | 103° |
| 2026-04-21 18:13 | 44.41396 | 8.84783 | 27 ft | 13 kts | 109° |
| 2026-04-21 18:13 | 44.41386 | 8.84876 | 25 ft | 8 kts | 45° |
| 2026-04-21 18:13 | 44.41417 | 8.84917 | 25 ft | 7 kts | 59° |
| 2026-04-21 18:13 | 44.41422 | 8.84929 | 25 ft | 0 kts | 59° |